This is the latest recevied weather packets stored in our database for station/object WX6HNX-4. If no packets are shown the sender has not sent any weather packets the latest 10 day(s).
| Time | Temp. | Humidity | Pressure | Rain* | Wind** | Luminosity | Snow |
|---|---|---|---|---|---|---|---|
| 1777822455 | 15° C | 70% | 1002.4 hPa | 0 mm | - | - | - |
| 1777821255 | 15° C | 70% | 1002.1 hPa | 0 mm | - | - | - |
| 1777818014 | 14.44° C | 72% | 1002.3 hPa | 0 mm | - | - | - |
| 1777816463 | 12.78° C | 76% | 1001.9 hPa | 0 mm | - | - | - |
| 1777816072 | 12.78° C | 77% | 1001.9 hPa | 0 mm | - | - | - |
| 1777815473 | 11.67° C | 79% | 1001.7 hPa | 0 mm | - | - | - |
| 1777814872 | 11.67° C | 76% | 1001.7 hPa | 0 mm | - | - | - |
| 1777814572 | 12.22° C | 75% | 1001.7 hPa | 0 mm | - | - | - |
| 1777813972 | 12.78° C | 78% | 1001.7 hPa | 0 mm | - | - | - |
| 1777813374 | 11.67° C | 78% | 1001.7 hPa | 0 mm | - | - | - |
| 1777812173 | 11.11° C | 79% | 1001.6 hPa | 0 mm | - | - | - |
| 1777811873 | 10.56° C | 82% | 1001.5 hPa | 0 mm | - | - | - |
| 1777810372 | 10.56° C | 78% | 1001.8 hPa | 0 mm | - | - | - |
| 1777810072 | 10.56° C | 78% | 1001.8 hPa | 0 mm | - | - | - |
| 1777809773 | 10.56° C | 77% | 1001.8 hPa | 0 mm | - | - | - |
| 1777807748 | 11.11° C | 76% | 1002.2 hPa | 0 mm | - | - | - |
| 1777807448 | 11.67° C | 75% | 1002.2 hPa | 0 mm | - | - | - |
| 1777807148 | 12.22° C | 72% | 1002.3 hPa | 0 mm | - | - | - |
| 1777806848 | 13.33° C | 69% | 1002.3 hPa | 0 mm | - | - | - |
| 1777806548 | 15° C | 64% | 1002.3 hPa | 0 mm | - | - | - |
| 1777805948 | 16.11° C | 61% | 1002.4 hPa | 0 mm | - | - | - |
| 1777805648 | 16.11° C | 62% | 1002.5 hPa | 0 mm | - | - | - |
| 1777805348 | 15.56° C | 63% | 1002.5 hPa | 0 mm | - | - | - |
| 1777804488 | 15° C | 65% | 1002.5 hPa | 0 mm | - | - | - |
| 1777803288 | 13.89° C | 68% | 1002.3 hPa | 0 mm | - | - | - |
* Rain latest hour (hover to see other rain measurements)
** Current wind speed in m/s (hover to see current wind gust speed)